sensor_id;sensor_type;location;lat;lon;timestamp;P1;durP1;ratioP1;P2;durP2;ratioP2
52072;SDS011;38074;51.232;6.826;2023-02-02T00:06:44;1.27;;;0.30;;
52072;SDS011;38074;51.232;6.826;2023-02-02T00:14:00;0.80;;;0.30;;
52072;SDS011;38074;51.232;6.826;2023-02-02T00:21:16;2.07;;;0.30;;
52072;SDS011;38074;51.232;6.826;2023-02-02T00:28:31;0.63;;;0.30;;
52072;SDS011;38074;51.232;6.826;2023-02-02T00:35:47;0.77;;;0.30;;
52072;SDS011;38074;51.232;6.826;2023-02-02T00:43:02;1.00;;;0.40;;
52072;SDS011;38074;51.232;6.826;2023-02-02T00:50:19;0.80;;;0.30;;
52072;SDS011;38074;51.232;6.826;2023-02-02T00:57:35;1.00;;;0.30;;
52072;SDS011;38074;51.232;6.826;2023-02-02T01:04:50;2.90;;;0.30;;
52072;SDS011;38074;51.232;6.826;2023-02-02T01:12:06;1.07;;;0.40;;
52072;SDS011;38074;51.232;6.826;2023-02-02T01:19:21;1.20;;;0.40;;
52072;SDS011;38074;51.232;6.826;2023-02-02T01:26:37;1.17;;;0.23;;
52072;SDS011;38074;51.232;6.826;2023-02-02T01:33:52;1.23;;;0.33;;
52072;SDS011;38074;51.232;6.826;2023-02-02T01:41:11;0.45;;;0.20;;
52072;SDS011;38074;51.232;6.826;2023-02-02T01:48:29;1.90;;;0.30;;
52072;SDS011;38074;51.232;6.826;2023-02-02T01:55:48;1.23;;;0.40;;
52072;SDS011;38074;51.232;6.826;2023-02-02T02:03:06;0.87;;;0.30;;
52072;SDS011;38074;51.232;6.826;2023-02-02T02:10:25;0.98;;;0.25;;
52072;SDS011;38074;51.232;6.826;2023-02-02T02:18:00;1.93;;;0.63;;
52072;SDS011;38074;51.232;6.826;2023-02-02T02:33:41;1.00;;;0.30;;
52072;SDS011;38074;51.232;6.826;2023-02-02T02:41:29;1.40;;;0.45;;
52072;SDS011;38074;51.232;6.826;2023-02-02T02:48:51;1.08;;;0.40;;
52072;SDS011;38074;51.232;6.826;2023-02-02T02:56:18;1.00;;;0.30;;
52072;SDS011;38074;51.232;6.826;2023-02-02T03:03:45;0.93;;;0.38;;
52072;SDS011;38074;51.232;6.826;2023-02-02T03:11:04;0.68;;;0.30;;
52072;SDS011;38074;51.232;6.826;2023-02-02T03:18:23;0.88;;;0.40;;
52072;SDS011;38074;51.232;6.826;2023-02-02T03:25:42;1.05;;;0.30;;
52072;SDS011;38074;51.232;6.826;2023-02-02T03:32:57;0.80;;;0.20;;
52072;SDS011;38074;51.232;6.826;2023-02-02T03:40:13;0.67;;;0.33;;
52072;SDS011;38074;51.232;6.826;2023-02-02T03:47:29;0.70;;;0.30;;
52072;SDS011;38074;51.232;6.826;2023-02-02T03:54:44;0.70;;;0.20;;
52072;SDS011;38074;51.232;6.826;2023-02-02T04:02:00;1.33;;;0.40;;
52072;SDS011;38074;51.232;6.826;2023-02-02T04:09:15;0.93;;;0.30;;
52072;SDS011;38074;51.232;6.826;2023-02-02T04:16:31;0.77;;;0.20;;
52072;SDS011;38074;51.232;6.826;2023-02-02T04:23:49;1.05;;;0.30;;
52072;SDS011;38074;51.232;6.826;2023-02-02T04:31:05;0.60;;;0.20;;
52072;SDS011;38074;51.232;6.826;2023-02-02T04:38:20;1.00;;;0.20;;
52072;SDS011;38074;51.232;6.826;2023-02-02T04:45:36;0.80;;;0.30;;
52072;SDS011;38074;51.232;6.826;2023-02-02T04:52:52;1.75;;;0.22;;
52072;SDS011;38074;51.232;6.826;2023-02-02T05:00:08;1.30;;;0.32;;
52072;SDS011;38074;51.232;6.826;2023-02-02T05:07:28;2.10;;;0.50;;
52072;SDS011;38074;51.232;6.826;2023-02-02T05:14:44;0.63;;;0.20;;
52072;SDS011;38074;51.232;6.826;2023-02-02T05:21:59;1.50;;;0.30;;
52072;SDS011;38074;51.232;6.826;2023-02-02T05:29:15;1.17;;;0.30;;
52072;SDS011;38074;51.232;6.826;2023-02-02T05:36:30;2.10;;;0.43;;
52072;SDS011;38074;51.232;6.826;2023-02-02T05:43:46;2.43;;;0.50;;
52072;SDS011;38074;51.232;6.826;2023-02-02T05:51:02;1.80;;;0.37;;
52072;SDS011;38074;51.232;6.826;2023-02-02T05:58:35;0.85;;;0.30;;
52072;SDS011;38074;51.232;6.826;2023-02-02T06:05:51;1.35;;;0.30;;
52072;SDS011;38074;51.232;6.826;2023-02-02T06:13:07;0.90;;;0.30;;
52072;SDS011;38074;51.232;6.826;2023-02-02T06:20:23;1.60;;;0.35;;
52072;SDS011;38074;51.232;6.826;2023-02-02T06:27:39;1.25;;;0.30;;
52072;SDS011;38074;51.232;6.826;2023-02-02T06:34:54;0.90;;;0.20;;
52072;SDS011;38074;51.232;6.826;2023-02-02T06:42:10;2.60;;;0.20;;
52072;SDS011;38074;51.232;6.826;2023-02-02T06:49:25;2.13;;;0.40;;
52072;SDS011;38074;51.232;6.826;2023-02-02T06:56:42;1.73;;;0.60;;
52072;SDS011;38074;51.232;6.826;2023-02-02T07:03:57;1.50;;;0.40;;
52072;SDS011;38074;51.232;6.826;2023-02-02T07:11:13;2.85;;;0.38;;
52072;SDS011;38074;51.232;6.826;2023-02-02T07:18:28;4.93;;;0.50;;
52072;SDS011;38074;51.232;6.826;2023-02-02T07:25:44;3.22;;;0.60;;
52072;SDS011;38074;51.232;6.826;2023-02-02T07:33:00;2.83;;;0.30;;
52072;SDS011;38074;51.232;6.826;2023-02-02T07:40:25;6.22;;;0.85;;
52072;SDS011;38074;51.232;6.826;2023-02-02T07:47:59;7.03;;;1.77;;
52072;SDS011;38074;51.232;6.826;2023-02-02T07:55:15;9.30;;;1.92;;
52072;SDS011;38074;51.232;6.826;2023-02-02T08:10:08;4.88;;;1.20;;
52072;SDS011;38074;51.232;6.826;2023-02-02T08:25:30;7.53;;;1.35;;
52072;SDS011;38074;51.232;6.826;2023-02-02T08:32:54;6.05;;;1.17;;
52072;SDS011;38074;51.232;6.826;2023-02-02T08:40:10;9.77;;;1.40;;
52072;SDS011;38074;51.232;6.826;2023-02-02T08:47:28;6.32;;;1.13;;
52072;SDS011;38074;51.232;6.826;2023-02-02T08:54:44;6.10;;;1.23;;
52072;SDS011;38074;51.232;6.826;2023-02-02T09:02:00;3.08;;;0.70;;
52072;SDS011;38074;51.232;6.826;2023-02-02T09:09:15;4.93;;;0.83;;
52072;SDS011;38074;51.232;6.826;2023-02-02T09:16:31;10.23;;;2.20;;
52072;SDS011;38074;51.232;6.826;2023-02-02T09:23:48;7.60;;;1.67;;
52072;SDS011;38074;51.232;6.826;2023-02-02T09:31:05;8.18;;;1.77;;
52072;SDS011;38074;51.232;6.826;2023-02-02T09:38:21;6.13;;;1.63;;
52072;SDS011;38074;51.232;6.826;2023-02-02T09:45:43;7.27;;;1.57;;
52072;SDS011;38074;51.232;6.826;2023-02-02T10:00:42;7.57;;;1.90;;
52072;SDS011;38074;51.232;6.826;2023-02-02T10:08:01;8.43;;;1.75;;
52072;SDS011;38074;51.232;6.826;2023-02-02T10:22:56;5.45;;;1.27;;
52072;SDS011;38074;51.232;6.826;2023-02-02T10:30:24;5.35;;;1.35;;
52072;SDS011;38074;51.232;6.826;2023-02-02T10:45:28;6.53;;;1.50;;
52072;SDS011;38074;51.232;6.826;2023-02-02T10:52:45;17.77;;;3.80;;
52072;SDS011;38074;51.232;6.826;2023-02-02T11:00:29;11.82;;;2.90;;
52072;SDS011;38074;51.232;6.826;2023-02-02T11:07:46;10.30;;;3.30;;
52072;SDS011;38074;51.232;6.826;2023-02-02T11:15:05;10.27;;;2.67;;
52072;SDS011;38074;51.232;6.826;2023-02-02T11:22:41;11.13;;;2.97;;
52072;SDS011;38074;51.232;6.826;2023-02-02T11:37:23;9.27;;;2.60;;
52072;SDS011;38074;51.232;6.826;2023-02-02T11:44:39;11.27;;;2.40;;
52072;SDS011;38074;51.232;6.826;2023-02-02T11:51:57;10.55;;;2.67;;
52072;SDS011;38074;51.232;6.826;2023-02-02T12:06:56;8.00;;;2.10;;
52072;SDS011;38074;51.232;6.826;2023-02-02T12:36:49;6.82;;;2.28;;
52072;SDS011;38074;51.232;6.826;2023-02-02T13:14:47;6.38;;;1.65;;
52072;SDS011;38074;51.232;6.826;2023-02-02T13:22:09;10.73;;;2.13;;
52072;SDS011;38074;51.232;6.826;2023-02-02T13:29:49;4.97;;;1.40;;
52072;SDS011;38074;51.232;6.826;2023-02-02T13:37:19;4.18;;;1.10;;
52072;SDS011;38074;51.232;6.826;2023-02-02T13:44:43;5.93;;;1.33;;
52072;SDS011;38074;51.232;6.826;2023-02-02T13:52:11;4.70;;;1.17;;
52072;SDS011;38074;51.232;6.826;2023-02-02T14:00:03;7.22;;;1.30;;
52072;SDS011;38074;51.232;6.826;2023-02-02T14:07:37;3.45;;;1.08;;
52072;SDS011;38074;51.232;6.826;2023-02-02T14:14:57;7.07;;;1.48;;
52072;SDS011;38074;51.232;6.826;2023-02-02T14:36:49;4.47;;;0.90;;
52072;SDS011;38074;51.232;6.826;2023-02-02T14:44:28;2.17;;;0.70;;
52072;SDS011;38074;51.232;6.826;2023-02-02T14:51:45;3.75;;;0.80;;
52072;SDS011;38074;51.232;6.826;2023-02-02T14:59:04;2.53;;;1.15;;
52072;SDS011;38074;51.232;6.826;2023-02-02T15:13:36;2.75;;;0.70;;
52072;SDS011;38074;51.232;6.826;2023-02-02T15:20:54;3.47;;;1.27;;
52072;SDS011;38074;51.232;6.826;2023-02-02T15:28:18;4.65;;;0.73;;
52072;SDS011;38074;51.232;6.826;2023-02-02T15:35:55;5.65;;;0.85;;
52072;SDS011;38074;51.232;6.826;2023-02-02T15:43:13;6.20;;;0.80;;
52072;SDS011;38074;51.232;6.826;2023-02-02T15:50:29;5.20;;;0.63;;
52072;SDS011;38074;51.232;6.826;2023-02-02T15:57:44;3.20;;;0.70;;
52072;SDS011;38074;51.232;6.826;2023-02-02T16:05:00;5.68;;;0.77;;
52072;SDS011;38074;51.232;6.826;2023-02-02T16:12:17;1.67;;;0.70;;
52072;SDS011;38074;51.232;6.826;2023-02-02T16:19:34;0.90;;;0.52;;
52072;SDS011;38074;51.232;6.826;2023-02-02T16:26:51;2.58;;;0.70;;
52072;SDS011;38074;51.232;6.826;2023-02-02T16:34:13;1.60;;;0.60;;
52072;SDS011;38074;51.232;6.826;2023-02-02T16:41:33;1.80;;;0.73;;
52072;SDS011;38074;51.232;6.826;2023-02-02T16:48:55;2.07;;;0.60;;
52072;SDS011;38074;51.232;6.826;2023-02-02T16:56:34;2.75;;;0.70;;
52072;SDS011;38074;51.232;6.826;2023-02-02T17:03:54;2.13;;;0.80;;
52072;SDS011;38074;51.232;6.826;2023-02-02T17:18:34;1.63;;;0.50;;
52072;SDS011;38074;51.232;6.826;2023-02-02T17:25:50;3.07;;;0.80;;
52072;SDS011;38074;51.232;6.826;2023-02-02T17:33:10;3.17;;;0.60;;
52072;SDS011;38074;51.232;6.826;2023-02-02T17:40:28;1.50;;;0.60;;
52072;SDS011;38074;51.232;6.826;2023-02-02T17:47:44;1.63;;;0.50;;
52072;SDS011;38074;51.232;6.826;2023-02-02T17:54:59;3.47;;;0.52;;
52072;SDS011;38074;51.232;6.826;2023-02-02T18:02:15;3.10;;;0.63;;
52072;SDS011;38074;51.232;6.826;2023-02-02T18:09:31;10.05;;;1.48;;
52072;SDS011;38074;51.232;6.826;2023-02-02T18:16:48;6.23;;;1.03;;
52072;SDS011;38074;51.232;6.826;2023-02-02T18:24:03;2.10;;;0.60;;
52072;SDS011;38074;51.232;6.826;2023-02-02T18:31:19;1.30;;;0.40;;
52072;SDS011;38074;51.232;6.826;2023-02-02T18:38:38;3.15;;;0.70;;
52072;SDS011;38074;51.232;6.826;2023-02-02T18:46:01;9.90;;;0.90;;
52072;SDS011;38074;51.232;6.826;2023-02-02T18:53:18;4.18;;;0.88;;
52072;SDS011;38074;51.232;6.826;2023-02-02T19:00:34;4.47;;;1.03;;
52072;SDS011;38074;51.232;6.826;2023-02-02T19:07:50;4.13;;;0.70;;
52072;SDS011;38074;51.232;6.826;2023-02-02T19:15:11;5.05;;;0.88;;
52072;SDS011;38074;51.232;6.826;2023-02-02T19:22:27;4.40;;;0.60;;
52072;SDS011;38074;51.232;6.826;2023-02-02T19:29:47;4.45;;;0.60;;
52072;SDS011;38074;51.232;6.826;2023-02-02T19:44:35;3.85;;;0.80;;
52072;SDS011;38074;51.232;6.826;2023-02-02T19:51:54;2.88;;;0.70;;
52072;SDS011;38074;51.232;6.826;2023-02-02T19:59:15;5.07;;;0.73;;
52072;SDS011;38074;51.232;6.826;2023-02-02T20:06:33;4.82;;;0.70;;
52072;SDS011;38074;51.232;6.826;2023-02-02T20:13:50;2.25;;;0.73;;
52072;SDS011;38074;51.232;6.826;2023-02-02T20:21:06;1.60;;;0.50;;
52072;SDS011;38074;51.232;6.826;2023-02-02T20:35:59;1.58;;;0.47;;
52072;SDS011;38074;51.232;6.826;2023-02-02T20:43:16;2.05;;;0.63;;
52072;SDS011;38074;51.232;6.826;2023-02-02T20:50:32;2.50;;;0.50;;
52072;SDS011;38074;51.232;6.826;2023-02-02T20:57:47;4.37;;;0.80;;
52072;SDS011;38074;51.232;6.826;2023-02-02T21:05:03;2.07;;;0.67;;
52072;SDS011;38074;51.232;6.826;2023-02-02T21:12:18;3.05;;;0.52;;
52072;SDS011;38074;51.232;6.826;2023-02-02T21:19:38;2.03;;;0.40;;
52072;SDS011;38074;51.232;6.826;2023-02-02T21:26:53;3.70;;;0.70;;
52072;SDS011;38074;51.232;6.826;2023-02-02T21:34:10;2.63;;;0.63;;
52072;SDS011;38074;51.232;6.826;2023-02-02T21:41:26;1.17;;;0.57;;
52072;SDS011;38074;51.232;6.826;2023-02-02T21:48:45;3.08;;;0.55;;
52072;SDS011;38074;51.232;6.826;2023-02-02T21:56:02;1.27;;;0.40;;
52072;SDS011;38074;51.232;6.826;2023-02-02T22:03:24;1.48;;;0.40;;
52072;SDS011;38074;51.232;6.826;2023-02-02T22:10:53;1.65;;;0.40;;
52072;SDS011;38074;51.232;6.826;2023-02-02T22:18:15;2.00;;;0.50;;
52072;SDS011;38074;51.232;6.826;2023-02-02T22:25:35;2.65;;;0.65;;
52072;SDS011;38074;51.232;6.826;2023-02-02T22:32:53;1.20;;;0.40;;
52072;SDS011;38074;51.232;6.826;2023-02-02T22:40:09;1.70;;;0.30;;
52072;SDS011;38074;51.232;6.826;2023-02-02T22:47:26;2.53;;;0.53;;
52072;SDS011;38074;51.232;6.826;2023-02-02T22:54:41;0.88;;;0.30;;
52072;SDS011;38074;51.232;6.826;2023-02-02T23:01:57;0.80;;;0.20;;
52072;SDS011;38074;51.232;6.826;2023-02-02T23:09:12;0.67;;;0.30;;
52072;SDS011;38074;51.232;6.826;2023-02-02T23:16:28;1.27;;;0.43;;
52072;SDS011;38074;51.232;6.826;2023-02-02T23:23:44;0.88;;;0.30;;
52072;SDS011;38074;51.232;6.826;2023-02-02T23:30:59;0.57;;;0.20;;
52072;SDS011;38074;51.232;6.826;2023-02-02T23:38:16;1.67;;;0.40;;
52072;SDS011;38074;51.232;6.826;2023-02-02T23:45:31;0.40;;;0.20;;
52072;SDS011;38074;51.232;6.826;2023-02-02T23:52:47;0.50;;;0.30;;
